Time;durP1;ratioP1;P1;durP2;ratioP2;P2;SDS_P1;SDS_P2;PMS_P1;PMS_P2;Temp;Humidity;BMP_temperature;BMP_pressure;BME280_temperature;BME280_humidity;BME280_pressure;Samples;Min_cycle;Max_cycle;Signal;HPM_P1;HPM_P2
2022/04/25 00:00:02;;;;;;;15.07;13.77;;;;;;;;;;510788;28;1529;-86
2022/04/25 00:00:17;;;;;;;15.45;14.05;;;;;;;;;;510211;28;1517;-86
2022/04/25 00:00:35;;;;;;;15.70;14.20;;;;;;;;;;513802;28;1447;-86
2022/04/25 00:00:50;;;;;;;15.57;14.18;;;;;;;;;;515382;28;1539;-86
2022/04/25 00:01:06;;;;;;;15.43;14.03;;;;;;;;;;514080;28;1441;-86
2022/04/25 00:01:21;;;;;;;16.25;14.80;;;;;;;;;;512628;28;1549;-87
2022/04/25 00:01:37;;;;;;;16.27;14.87;;;;;;;;;;512547;28;1428;-86
2022/04/25 00:01:53;;;;;;;15.88;14.48;;;;;;;;;;513638;28;1757;-86
2022/04/25 00:02:08;;;;;;;16.25;14.75;;;;;;;;;;514392;28;1638;-86
2022/04/25 00:02:24;;;;;;;16.17;14.67;;;;;;;;;;513973;28;1730;-86
2022/04/25 00:02:40;;;;;;;16.23;14.73;;;;;;;;;;512661;28;1532;-87
2022/04/25 00:02:57;;;;;;;16.27;14.80;;;;;;;;;;514169;28;1547;-86
2022/04/25 00:03:13;;;;;;;16.17;14.68;;;;;;;;;;514469;28;1524;-86
2022/04/25 00:03:28;;;;;;;15.60;14.20;;;;;;;;;;515579;28;1660;-85
2022/04/25 00:03:44;;;;;;;15.27;13.97;;;;;;;;;;516728;28;1722;-86
2022/04/25 00:04:00;;;;;;;15.65;14.25;;;;;;;;;;516725;28;1566;-86
2022/04/25 00:04:16;;;;;;;16.13;14.63;;;;;;;;;;514477;28;1431;-86
2022/04/25 00:04:31;;;;;;;15.93;14.53;;;;;;;;;;514388;28;1447;-86
2022/04/25 00:04:47;;;;;;;16.10;14.60;;;;;;;;;;514680;28;1407;-86
2022/04/25 00:05:02;;;;;;;16.15;14.65;;;;;;;;;;513774;28;1519;-86
2022/04/25 00:05:18;;;;;;;15.70;14.30;;;;;;;;;;513709;28;1360;-86
2022/04/25 00:05:33;;;;;;;15.93;14.52;;;;;;;;;;513603;28;1977;-86
2022/04/25 00:05:49;;;;;;;15.97;14.57;;;;;;;;;;515613;28;1432;-86
2022/04/25 00:06:04;;;;;;;15.88;14.43;;;;;;;;;;513224;28;1504;-87
2022/04/25 00:06:20;;;;;;;15.73;14.32;;;;;;;;;;513994;28;1400;-86
2022/04/25 00:06:35;;;;;;;15.50;14.13;;;;;;;;;;513575;28;1602;-87
2022/04/25 00:06:50;;;;;;;15.43;14.03;;;;;;;;;;512351;28;1389;-86
2022/04/25 00:07:06;;;;;;;15.45;14.05;;;;;;;;;;512573;28;1505;-86
2022/04/25 00:07:21;;;;;;;15.97;14.50;;;;;;;;;;512907;28;1492;-86
2022/04/25 00:07:37;;;;;;;16.37;14.87;;;;;;;;;;511016;28;1440;-86
2022/04/25 00:07:52;;;;;;;16.40;14.85;;;;;;;;;;513223;28;1548;-86
2022/04/25 00:08:08;;;;;;;16.40;14.87;;;;;;;;;;515170;28;1444;-86
2022/04/25 00:08:23;;;;;;;16.07;14.60;;;;;;;;;;514538;28;1440;-86
2022/04/25 00:08:39;;;;;;;16.13;14.63;;;;;;;;;;512652;28;1688;-86
2022/04/25 00:08:54;;;;;;;16.58;14.98;;;;;;;;;;513137;28;1973;-86
2022/04/25 00:09:10;;;;;;;16.40;14.80;;;;;;;;;;511789;28;1659;-86
2022/04/25 00:09:25;;;;;;;16.33;14.83;;;;;;;;;;512919;28;1485;-86
2022/04/25 00:09:41;;;;;;;16.77;15.23;;;;;;;;;;512724;28;1546;-86
2022/04/25 00:09:56;;;;;;;16.90;15.30;;;;;;;;;;510540;29;1576;-86
2022/04/25 00:10:13;;;;;;;16.93;15.40;;;;;;;;;;510303;28;1529;-86
2022/04/25 00:10:28;;;;;;;16.88;15.38;;;;;;;;;;512721;28;1469;-86
2022/04/25 00:10:44;;;;;;;16.88;15.38;;;;;;;;;;514633;28;1584;-86
2022/04/25 00:10:59;;;;;;;17.27;15.67;;;;;;;;;;514376;28;1429;-86
2022/04/25 00:11:15;;;;;;;17.08;15.48;;;;;;;;;;514243;28;1854;-86
2022/04/25 00:11:31;;;;;;;17.00;15.50;;;;;;;;;;512415;28;1440;-86
2022/04/25 00:11:46;;;;;;;17.30;15.80;;;;;;;;;;513032;28;1421;-86
2022/04/25 00:12:02;;;;;;;17.70;16.10;;;;;;;;;;513205;28;1382;-86
2022/04/25 00:12:18;;;;;;;17.17;15.57;;;;;;;;;;512786;28;1485;-87
2022/04/25 00:12:33;;;;;;;16.95;15.35;;;;;;;;;;510162;29;1612;-86
2022/04/25 00:12:48;;;;;;;17.23;15.53;;;;;;;;;;511157;29;1398;-86
2022/04/25 00:13:04;;;;;;;17.05;15.35;;;;;;;;;;511008;29;1434;-86
2022/04/25 00:13:19;;;;;;;17.00;15.50;;;;;;;;;;513009;28;1433;-86
2022/04/25 00:13:35;;;;;;;17.13;15.63;;;;;;;;;;512438;28;1590;-86
2022/04/25 00:13:50;;;;;;;16.77;15.27;;;;;;;;;;512595;28;1392;-86
2022/04/25 00:14:07;;;;;;;16.67;15.17;;;;;;;;;;515070;28;1598;-86
2022/04/25 00:14:22;;;;;;;16.65;15.15;;;;;;;;;;514434;28;1487;-86
2022/04/25 00:14:38;;;;;;;16.70;15.20;;;;;;;;;;512444;28;1414;-86
2022/04/25 00:14:53;;;;;;;16.90;15.40;;;;;;;;;;513111;28;1433;-86
2022/04/25 00:15:08;;;;;;;17.00;15.40;;;;;;;;;;512663;28;1546;-86
2022/04/25 00:15:27;;;;;;;17.20;15.60;;;;;;;;;;512899;28;1473;-86
2022/04/25 00:15:42;;;;;;;16.98;15.48;;;;;;;;;;512902;28;1445;-86
2022/04/25 00:15:59;;;;;;;16.83;15.32;;;;;;;;;;513737;28;1611;-86
2022/04/25 00:16:14;;;;;;;16.67;15.18;;;;;;;;;;514778;28;1467;-85
2022/04/25 00:16:30;;;;;;;16.73;15.23;;;;;;;;;;513782;28;1908;-87
2022/04/25 00:16:45;;;;;;;16.40;14.93;;;;;;;;;;514549;28;1461;-86
2022/04/25 00:17:00;;;;;;;16.27;14.87;;;;;;;;;;514913;28;1590;-86
2022/04/25 00:17:16;;;;;;;17.02;15.52;;;;;;;;;;514118;28;1531;-87
2022/04/25 00:17:31;;;;;;;17.53;15.93;;;;;;;;;;513156;28;1528;-87
2022/04/25 00:17:46;;;;;;;17.83;16.20;;;;;;;;;;515085;28;1397;-86
2022/04/25 00:18:02;;;;;;;17.50;15.80;;;;;;;;;;512630;28;1659;-86
2022/04/25 00:18:17;;;;;;;16.90;15.30;;;;;;;;;;513165;28;1561;-86
2022/04/25 00:18:33;;;;;;;16.73;15.23;;;;;;;;;;511275;28;1465;-87
2022/04/25 00:18:49;;;;;;;16.57;15.07;;;;;;;;;;513218;28;1441;-87
2022/04/25 00:19:04;;;;;;;16.70;15.25;;;;;;;;;;514210;28;1580;-87
2022/04/25 00:19:19;;;;;;;16.50;15.00;;;;;;;;;;514453;28;1441;-87
2022/04/25 00:19:35;;;;;;;16.73;15.23;;;;;;;;;;514697;28;1631;-87
2022/04/25 00:19:51;;;;;;;17.27;15.70;;;;;;;;;;512437;28;1665;-86
2022/04/25 00:20:08;;;;;;;17.20;15.60;;;;;;;;;;513571;28;1838;-86
2022/04/25 00:20:23;;;;;;;17.33;15.73;;;;;;;;;;512250;28;1565;-87
2022/04/25 00:20:39;;;;;;;17.40;15.80;;;;;;;;;;513274;28;1426;-86
2022/04/25 00:20:55;;;;;;;17.00;15.50;;;;;;;;;;514241;28;1626;-87
2022/04/25 00:21:11;;;;;;;16.75;15.25;;;;;;;;;;512668;28;1608;-87
2022/04/25 00:21:27;;;;;;;17.40;15.82;;;;;;;;;;512809;28;1930;-86
2022/04/25 00:21:42;;;;;;;17.80;16.10;;;;;;;;;;512891;28;1437;-86
2022/04/25 00:21:57;;;;;;;17.70;16.00;;;;;;;;;;512805;28;1796;-86
2022/04/25 00:22:13;;;;;;;17.38;15.82;;;;;;;;;;512745;28;1461;-87
2022/04/25 00:22:28;;;;;;;17.40;15.80;;;;;;;;;;512723;28;1679;-86
2022/04/25 00:22:45;;;;;;;17.15;15.55;;;;;;;;;;513040;28;1521;-87
2022/04/25 00:23:04;;;;;;;17.05;15.45;;;;;;;;;;512969;28;1568;-86
2022/04/25 00:23:19;;;;;;;17.08;15.50;;;;;;;;;;511698;28;1431;-87
2022/04/25 00:23:35;;;;;;;17.33;15.73;;;;;;;;;;513367;28;1510;-86
2022/04/25 00:23:50;;;;;;;17.47;15.80;;;;;;;;;;512758;28;1398;-86
2022/04/25 00:24:06;;;;;;;17.25;15.63;;;;;;;;;;512596;28;1544;-87
2022/04/25 00:24:21;;;;;;;17.60;16.00;;;;;;;;;;512861;28;1446;-86
2022/04/25 00:24:36;;;;;;;17.48;15.98;;;;;;;;;;512528;28;1608;-86
2022/04/25 00:24:52;;;;;;;17.00;15.50;;;;;;;;;;514493;28;1480;-86
2022/04/25 00:25:08;;;;;;;17.63;15.93;;;;;;;;;;513866;28;1588;-87
2022/04/25 00:25:25;;;;;;;18.25;16.48;;;;;;;;;;513866;28;1428;-86
2022/04/25 00:25:41;;;;;;;17.23;15.65;;;;;;;;;;511596;28;1700;-86
2022/04/25 00:25:56;;;;;;;16.63;15.13;;;;;;;;;;511679;28;1521;-86
2022/04/25 00:26:11;;;;;;;17.17;15.60;;;;;;;;;;512378;28;1640;-86
2022/04/25 00:26:27;;;;;;;17.27;15.67;;;;;;;;;;514761;28;1631;-86
2022/04/25 00:26:42;;;;;;;17.00;15.50;;;;;;;;;;514471;28;1500;-86
2022/04/25 00:26:58;;;;;;;16.87;15.40;;;;;;;;;;514307;28;1461;-86
2022/04/25 00:27:14;;;;;;;16.70;15.20;;;;;;;;;;514695;28;1497;-86
2022/04/25 00:27:30;;;;;;;16.83;15.32;;;;;;;;;;513074;28;1650;-86
2022/04/25 00:27:45;;;;;;;16.80;15.30;;;;;;;;;;509437;29;1520;-86
2022/04/25 00:28:02;;;;;;;16.60;15.10;;;;;;;;;;507054;29;1410;-86
2022/04/25 00:28:19;;;;;;;17.27;15.57;;;;;;;;;;509976;29;1465;-86
2022/04/25 00:28:34;;;;;;;17.27;15.65;;;;;;;;;;508196;29;1409;-86
2022/04/25 00:28:49;;;;;;;16.92;15.50;;;;;;;;;;510830;28;1887;-86
2022/04/25 00:29:05;;;;;;;17.00;15.40;;;;;;;;;;510880;28;1620;-86
2022/04/25 00:29:21;;;;;;;16.60;15.03;;;;;;;;;;510622;28;1542;-86
2022/04/25 00:29:37;;;;;;;16.58;15.05;;;;;;;;;;510860;29;1379;-87
2022/04/25 00:29:52;;;;;;;16.90;15.40;;;;;;;;;;510315;29;1426;-87
2022/04/25 00:30:08;;;;;;;16.83;15.32;;;;;;;;;;510370;28;1573;-86
2022/04/25 00:30:24;;;;;;;16.90;15.30;;;;;;;;;;512452;28;1636;-86
2022/04/25 00:30:40;;;;;;;17.23;15.63;;;;;;;;;;510065;28;1411;-86
2022/04/25 00:30:55;;;;;;;17.70;16.10;;;;;;;;;;508508;29;1457;-86
2022/04/25 00:31:11;;;;;;;17.63;16.02;;;;;;;;;;511106;28;1496;-87
2022/04/25 00:31:26;;;;;;;17.13;15.55;;;;;;;;;;511119;28;1433;-86
2022/04/25 00:31:42;;;;;;;17.00;15.50;;;;;;;;;;510962;28;1581;-86
2022/04/25 00:31:57;;;;;;;16.90;15.40;;;;;;;;;;511119;28;1662;-86
2022/04/25 00:32:12;;;;;;;16.90;15.40;;;;;;;;;;510929;28;1476;-87
2022/04/25 00:32:28;;;;;;;16.50;15.07;;;;;;;;;;509032;29;1761;-86
2022/04/25 00:32:43;;;;;;;16.73;15.18;;;;;;;;;;511096;28;1449;-86
2022/04/25 00:32:59;;;;;;;16.87;15.27;;;;;;;;;;512322;28;1655;-86
2022/04/25 00:33:15;;;;;;;16.50;15.00;;;;;;;;;;512280;28;1575;-86
2022/04/25 00:33:31;;;;;;;16.40;15.00;;;;;;;;;;513079;28;1548;-86
2022/04/25 00:33:46;;;;;;;16.77;15.27;;;;;;;;;;514815;28;1472;-86
2022/04/25 00:34:01;;;;;;;16.60;15.10;;;;;;;;;;514768;28;1536;-86
2022/04/25 00:34:17;;;;;;;16.90;15.40;;;;;;;;;;515536;28;1569;-86
2022/04/25 00:34:32;;;;;;;17.43;15.93;;;;;;;;;;515289;28;1388;-86
2022/04/25 00:34:47;;;;;;;17.33;15.82;;;;;;;;;;515654;28;1612;-86
2022/04/25 00:35:04;;;;;;;17.13;15.53;;;;;;;;;;515618;28;1444;-86
2022/04/25 00:35:19;;;;;;;17.20;15.60;;;;;;;;;;512713;28;1516;-86
2022/04/25 00:35:34;;;;;;;16.88;15.38;;;;;;;;;;513951;28;1524;-86
2022/04/25 00:35:50;;;;;;;16.70;15.20;;;;;;;;;;512859;28;1499;-87
2022/04/25 00:36:05;;;;;;;17.10;15.50;;;;;;;;;;509758;29;1548;-87
2022/04/25 00:36:20;;;;;;;17.40;15.80;;;;;;;;;;510473;29;1490;-86
2022/04/25 00:36:36;;;;;;;17.73;16.13;;;;;;;;;;510718;28;1489;-86
2022/04/25 00:36:51;;;;;;;17.63;16.02;;;;;;;;;;508634;29;1550;-86
2022/04/25 00:37:07;;;;;;;17.37;15.73;;;;;;;;;;508777;29;1453;-87
2022/04/25 00:37:22;;;;;;;17.07;15.47;;;;;;;;;;508540;29;1525;-86
2022/04/25 00:37:37;;;;;;;16.90;15.30;;;;;;;;;;510274;28;1858;-86
2022/04/25 00:37:53;;;;;;;16.73;15.20;;;;;;;;;;510679;28;1454;-86
2022/04/25 00:38:09;;;;;;;16.48;14.98;;;;;;;;;;508877;29;1637;-86
2022/04/25 00:38:24;;;;;;;16.83;15.23;;;;;;;;;;509082;29;1503;-86
2022/04/25 00:38:40;;;;;;;16.73;15.23;;;;;;;;;;510993;28;1433;-86
2022/04/25 00:38:55;;;;;;;17.10;15.60;;;;;;;;;;512954;28;1527;-87
2022/04/25 00:39:11;;;;;;;17.70;16.00;;;;;;;;;;512900;28;1473;-86
2022/04/25 00:39:27;;;;;;;17.67;15.97;;;;;;;;;;510909;28;1820;-86
2022/04/25 00:39:43;;;;;;;17.55;15.95;;;;;;;;;;509010;29;1510;-86
2022/04/25 00:39:58;;;;;;;17.30;15.80;;;;;;;;;;510705;28;1644;-86
2022/04/25 00:40:15;;;;;;;17.27;15.67;;;;;;;;;;511241;28;1501;-86
2022/04/25 00:40:30;;;;;;;17.35;15.73;;;;;;;;;;508845;29;1509;-86
2022/04/25 00:40:46;;;;;;;17.10;15.60;;;;;;;;;;510513;28;1494;-86
2022/04/25 00:41:02;;;;;;;17.67;16.08;;;;;;;;;;512215;28;1679;-86
2022/04/25 00:41:17;;;;;;;18.27;16.58;;;;;;;;;;513217;28;1479;-86
2022/04/25 00:41:33;;;;;;;17.90;16.20;;;;;;;;;;514563;28;1428;-86
2022/04/25 00:41:49;;;;;;;17.17;15.43;;;;;;;;;;510934;28;1888;-86
2022/04/25 00:42:04;;;;;;;17.50;15.80;;;;;;;;;;512579;28;1421;-86
2022/04/25 00:42:20;;;;;;;17.80;16.20;;;;;;;;;;510064;28;1627;-86
2022/04/25 00:42:36;;;;;;;17.60;16.00;;;;;;;;;;512610;28;1441;-86
2022/04/25 00:42:52;;;;;;;17.75;16.15;;;;;;;;;;514389;28;1621;-86
2022/04/25 00:43:07;;;;;;;17.80;16.27;;;;;;;;;;512160;28;1465;-86
2022/04/25 00:43:22;;;;;;;17.53;15.93;;;;;;;;;;512948;28;1577;-86
2022/04/25 00:43:38;;;;;;;17.43;15.83;;;;;;;;;;512841;28;1481;-86
2022/04/25 00:43:57;;;;;;;18.20;16.50;;;;;;;;;;514636;28;1441;-86
2022/04/25 00:44:12;;;;;;;18.20;16.40;;;;;;;;;;512775;28;1806;-87
2022/04/25 00:44:28;;;;;;;18.50;16.70;;;;;;;;;;512465;28;1464;-86
2022/04/25 00:44:44;;;;;;;18.77;17.08;;;;;;;;;;510863;29;1517;-86
2022/04/25 00:44:59;;;;;;;18.30;16.70;;;;;;;;;;511123;28;1684;-86
2022/04/25 00:45:16;;;;;;;18.10;16.47;;;;;;;;;;507010;29;1460;-86
2022/04/25 00:45:35;;;;;;;18.40;16.70;;;;;;;;;;508976;29;1517;-87
2022/04/25 00:45:50;;;;;;;18.15;16.52;;;;;;;;;;510537;28;1561;-87
2022/04/25 00:46:06;;;;;;;17.80;16.10;;;;;;;;;;512885;28;1513;-86
2022/04/25 00:46:24;;;;;;;18.02;16.23;;;;;;;;;;511906;28;1632;-86
2022/04/25 00:46:40;;;;;;;17.80;16.10;;;;;;;;;;512846;28;1532;-86
2022/04/25 00:46:56;;;;;;;18.40;16.70;;;;;;;;;;510307;28;1491;-86
2022/04/25 00:47:12;;;;;;;18.83;17.13;;;;;;;;;;510750;28;1772;-86
2022/04/25 00:47:29;;;;;;;18.92;17.23;;;;;;;;;;510241;29;1471;-86
2022/04/25 00:47:45;;;;;;;18.88;16.98;;;;;;;;;;508913;29;1458;-86
2022/04/25 00:48:01;;;;;;;18.67;16.92;;;;;;;;;;510562;29;1744;-86
2022/04/25 00:48:16;;;;;;;18.58;16.98;;;;;;;;;;510628;29;1509;-86
2022/04/25 00:48:32;;;;;;;18.17;16.58;;;;;;;;;;509639;28;1956;-87
2022/04/25 00:48:48;;;;;;;18.50;16.80;;;;;;;;;;510042;28;1415;-86
2022/04/25 00:49:04;;;;;;;18.80;17.10;;;;;;;;;;511243;28;1903;-86
2022/04/25 00:49:19;;;;;;;18.42;16.83;;;;;;;;;;511752;28;1531;-86
2022/04/25 00:49:35;;;;;;;18.37;16.77;;;;;;;;;;511606;28;1650;-86
2022/04/25 00:49:50;;;;;;;18.40;16.70;;;;;;;;;;512702;28;1690;-85
2022/04/25 00:50:08;;;;;;;18.70;16.98;;;;;;;;;;512717;28;1431;-86
2022/04/25 00:50:23;;;;;;;19.30;17.48;;;;;;;;;;514473;28;1664;-86
2022/04/25 00:50:39;;;;;;;18.97;17.07;;;;;;;;;;512594;28;1401;-86
2022/04/25 00:50:54;;;;;;;19.00;17.17;;;;;;;;;;512747;28;1695;-86
2022/04/25 00:51:11;;;;;;;18.80;17.10;;;;;;;;;;514274;28;1602;-86
2022/04/25 00:51:26;;;;;;;18.20;16.60;;;;;;;;;;515356;28;1870;-86
2022/04/25 00:51:42;;;;;;;18.50;16.80;;;;;;;;;;513616;28;1560;-86
2022/04/25 00:51:57;;;;;;;19.03;17.27;;;;;;;;;;515456;28;1509;-86
2022/04/25 00:52:13;;;;;;;19.38;17.50;;;;;;;;;;515299;28;1567;-86
2022/04/25 00:52:28;;;;;;;19.60;17.70;;;;;;;;;;513996;28;1329;-86
2022/04/25 00:52:44;;;;;;;19.40;17.48;;;;;;;;;;513043;28;1707;-86
2022/04/25 00:52:59;;;;;;;19.03;17.23;;;;;;;;;;510497;29;1434;-86
2022/04/25 00:53:15;;;;;;;18.80;17.10;;;;;;;;;;510756;28;1529;-86
2022/04/25 00:53:30;;;;;;;18.73;17.03;;;;;;;;;;512397;28;1456;-86
2022/04/25 00:53:47;;;;;;;18.58;16.90;;;;;;;;;;512685;28;1465;-86
2022/04/25 00:54:05;;;;;;;18.35;16.65;;;;;;;;;;514214;28;1458;-86
2022/04/25 00:54:22;;;;;;;18.38;16.67;;;;;;;;;;514325;28;1559;-86
2022/04/25 00:54:37;;;;;;;18.52;16.83;;;;;;;;;;515819;28;1757;-86
2022/04/25 00:54:52;;;;;;;18.80;17.00;;;;;;;;;;515000;28;1679;-86
2022/04/25 00:55:11;;;;;;;19.02;17.33;;;;;;;;;;515899;28;1560;-86
2022/04/25 00:55:26;;;;;;;19.00;17.27;;;;;;;;;;515093;28;1442;-86
2022/04/25 00:55:42;;;;;;;18.92;17.23;;;;;;;;;;510916;28;1587;-86
2022/04/25 00:55:59;;;;;;;18.40;16.80;;;;;;;;;;509472;29;1482;-86
2022/04/25 00:56:16;;;;;;;19.17;17.48;;;;;;;;;;509243;29;1488;-86
2022/04/25 00:56:34;;;;;;;19.10;17.35;;;;;;;;;;509873;29;1700;-86
2022/04/25 00:56:49;;;;;;;18.13;16.42;;;;;;;;;;512073;28;1478;-86
2022/04/25 00:57:05;;;;;;;17.83;16.23;;;;;;;;;;512340;28;1533;-86
2022/04/25 00:57:21;;;;;;;17.70;16.07;;;;;;;;;;511434;28;1546;-86
2022/04/25 00:57:37;;;;;;;17.58;15.98;;;;;;;;;;511966;28;1399;-86
2022/04/25 00:57:56;;;;;;;17.98;16.38;;;;;;;;;;513730;28;1579;-86
2022/04/25 00:58:13;;;;;;;17.83;16.23;;;;;;;;;;514638;28;1449;-86
2022/04/25 00:58:29;;;;;;;17.77;16.17;;;;;;;;;;514503;28;1499;-87
2022/04/25 00:58:45;;;;;;;18.10;16.50;;;;;;;;;;514962;28;1572;-86
2022/04/25 00:59:01;;;;;;;17.80;16.20;;;;;;;;;;513354;28;1747;-86
2022/04/25 00:59:18;;;;;;;17.23;15.73;;;;;;;;;;511855;28;1504;-86
2022/04/25 00:59:34;;;;;;;17.83;16.23;;;;;;;;;;511825;28;1492;-86
2022/04/25 00:59:49;;;;;;;18.60;16.80;;;;;;;;;;511527;28;1542;-86
2022/04/25 01:00:10;;;;;;;18.23;16.53;;;;;;;;;;510300;28;1398;-86
2022/04/25 01:00:26;;;;;;;18.23;16.63;;;;;;;;;;510384;28;1577;-86
2022/04/25 01:00:41;;;;;;;18.40;16.70;;;;;;;;;;510737;28;1489;-87
2022/04/25 01:00:57;;;;;;;18.13;16.52;;;;;;;;;;510056;28;1545;-87
2022/04/25 01:01:14;;;;;;;18.23;16.60;;;;;;;;;;512237;28;1473;-86
2022/04/25 01:01:31;;;;;;;18.00;16.30;;;;;;;;;;512642;28;1599;-86
2022/04/25 01:01:46;;;;;;;18.20;16.50;;;;;;;;;;514280;28;1621;-86
2022/04/25 01:02:02;;;;;;;18.25;16.60;;;;;;;;;;514494;28;1459;-86
2022/04/25 01:02:18;;;;;;;18.23;16.63;;;;;;;;;;511948;28;1481;-86
2022/04/25 01:02:33;;;;;;;18.60;16.90;;;;;;;;;;513562;28;2891;-86
2022/04/25 01:02:50;;;;;;;19.00;17.20;;;;;;;;;;512653;28;1486;-86
2022/04/25 01:03:05;;;;;;;19.25;17.45;;;;;;;;;;512856;28;1499;-86
2022/04/25 01:03:21;;;;;;;19.67;17.87;;;;;;;;;;512538;28;1582;-86
2022/04/25 01:03:36;;;;;;;19.87;17.97;;;;;;;;;;512805;28;1493;-86
2022/04/25 01:03:52;;;;;;;19.38;17.58;;;;;;;;;;510690;29;1615;-86
2022/04/25 01:04:07;;;;;;;19.27;17.57;;;;;;;;;;510441;28;1505;-86
2022/04/25 01:04:22;;;;;;;19.65;17.75;;;;;;;;;;510781;28;1518;-86
2022/04/25 01:04:38;;;;;;;19.97;17.87;;;;;;;;;;511146;29;1383;-86
2022/04/25 01:04:57;;;;;;;20.47;18.37;;;;;;;;;;510615;29;1541;-86
2022/04/25 01:05:13;;;;;;;20.63;18.58;;;;;;;;;;511451;28;1715;-86
2022/04/25 01:05:28;;;;;;;20.67;18.67;;;;;;;;;;513503;28;1620;-86
2022/04/25 01:05:43;;;;;;;21.23;19.07;;;;;;;;;;512333;28;1551;-86
2022/04/25 01:05:59;;;;;;;21.33;19.13;;;;;;;;;;511793;28;1441;-86
2022/04/25 01:06:14;;;;;;;21.10;19.00;;;;;;;;;;512585;28;1457;-86
2022/04/25 01:06:30;;;;;;;21.47;19.37;;;;;;;;;;513011;28;1429;-86
2022/04/25 01:06:45;;;;;;;21.85;19.75;;;;;;;;;;513616;28;1457;-86
2022/04/25 01:07:01;;;;;;;21.13;19.13;;;;;;;;;;512644;28;1453;-85
2022/04/25 01:07:16;;;;;;;20.63;18.73;;;;;;;;;;512335;28;1486;-86
2022/04/25 01:07:34;;;;;;;20.90;19.00;;;;;;;;;;513040;28;1441;-85
2022/04/25 01:07:50;;;;;;;20.75;18.85;;;;;;;;;;514835;28;1432;-85
2022/04/25 01:08:07;;;;;;;21.10;19.10;;;;;;;;;;517160;28;1559;-85
2022/04/25 01:08:22;;;;;;;21.73;19.63;;;;;;;;;;516940;28;1451;-85
2022/04/25 01:08:38;;;;;;;22.35;20.15;;;;;;;;;;516655;28;1559;-85
2022/04/25 01:08:53;;;;;;;22.30;20.10;;;;;;;;;;515642;28;1910;-86
2022/04/25 01:09:08;;;;;;;21.77;19.58;;;;;;;;;;516903;28;1448;-85
2022/04/25 01:09:25;;;;;;;21.63;19.53;;;;;;;;;;514496;28;1538;-85
2022/04/25 01:09:41;;;;;;;21.45;19.30;;;;;;;;;;514194;28;1441;-85
2022/04/25 01:09:56;;;;;;;21.30;19.20;;;;;;;;;;512886;28;1429;-86
2022/04/25 01:10:12;;;;;;;21.23;19.23;;;;;;;;;;511202;28;1431;-86
2022/04/25 01:10:28;;;;;;;21.02;19.13;;;;;;;;;;510956;29;1485;-85
2022/04/25 01:10:43;;;;;;;21.60;19.70;;;;;;;;;;512829;28;1456;-85
2022/04/25 01:11:01;;;;;;;22.25;20.23;;;;;;;;;;513830;28;1458;-85
2022/04/25 01:11:17;;;;;;;22.00;19.90;;;;;;;;;;515342;28;1483;-85
2022/04/25 01:11:33;;;;;;;21.73;19.67;;;;;;;;;;515878;28;1385;-85
2022/04/25 01:11:48;;;;;;;21.90;19.80;;;;;;;;;;516318;28;1570;-85
2022/04/25 01:12:04;;;;;;;22.27;20.08;;;;;;;;;;514809;28;1464;-85
2022/04/25 01:12:19;;;;;;;21.70;19.60;;;;;;;;;;512556;28;1503;-84
2022/04/25 01:12:35;;;;;;;21.50;19.50;;;;;;;;;;512004;28;1465;-86
2022/04/25 01:12:51;;;;;;;21.65;19.65;;;;;;;;;;511862;28;1846;-85
2022/04/25 01:13:06;;;;;;;21.45;19.45;;;;;;;;;;510541;28;1463;-85
2022/04/25 01:13:22;;;;;;;21.37;19.33;;;;;;;;;;510962;28;1608;-85
2022/04/25 01:13:37;;;;;;;21.17;19.10;;;;;;;;;;511114;28;1382;-85
2022/04/25 01:13:52;;;;;;;21.17;19.17;;;;;;;;;;510655;28;1602;-85
2022/04/25 01:14:19;;;;;;;20.93;19.00;;;;;;;;;;512949;28;1464;-85
2022/04/25 01:14:34;;;;;;;21.20;19.20;;;;;;;;;;516869;28;1516;-85
2022/04/25 01:14:59;;;;;;;21.30;19.20;;;;;;;;;;514625;28;1592;-85
2022/04/25 01:15:14;;;;;;;21.35;19.25;;;;;;;;;;514232;28;1610;-86
2022/04/25 01:15:31;;;;;;;20.97;18.97;;;;;;;;;;513557;28;1635;-85
2022/04/25 01:15:46;;;;;;;20.85;18.95;;;;;;;;;;512661;28;1442;-85
2022/04/25 01:16:02;;;;;;;20.23;18.40;;;;;;;;;;513065;28;1487;-86
2022/04/25 01:16:17;;;;;;;20.13;18.23;;;;;;;;;;511964;28;2071;-86
2022/04/25 01:16:32;;;;;;;20.38;18.48;;;;;;;;;;510370;28;1500;-86
2022/04/25 01:16:48;;;;;;;20.53;18.73;;;;;;;;;;512204;28;1548;-86
2022/04/25 01:17:03;;;;;;;20.88;18.98;;;;;;;;;;510779;28;1560;-86
2022/04/25 01:17:19;;;;;;;21.13;19.13;;;;;;;;;;511422;28;1623;-86
2022/04/25 01:17:35;;;;;;;21.30;19.20;;;;;;;;;;511018;28;1488;-86
2022/04/25 01:17:50;;;;;;;21.38;19.27;;;;;;;;;;512639;28;1489;-86
2022/04/25 01:18:06;;;;;;;20.97;18.97;;;;;;;;;;510512;28;1547;-86
2022/04/25 01:18:21;;;;;;;21.55;19.45;;;;;;;;;;510633;28;1545;-86
2022/04/25 01:18:37;;;;;;;21.80;19.73;;;;;;;;;;513228;28;1496;-85
2022/04/25 01:18:52;;;;;;;21.65;19.65;;;;;;;;;;511061;28;1533;-86
2022/04/25 01:19:08;;;;;;;21.70;19.70;;;;;;;;;;510323;28;1537;-86
2022/04/25 01:19:24;;;;;;;21.27;19.38;;;;;;;;;;510661;28;1431;-86
2022/04/25 01:19:40;;;;;;;20.60;18.73;;;;;;;;;;511716;28;1514;-86
2022/04/25 01:19:55;;;;;;;20.83;18.83;;;;;;;;;;511036;28;1465;-86
2022/04/25 01:20:11;;;;;;;20.98;18.95;;;;;;;;;;511089;28;1681;-86
2022/04/25 01:20:26;;;;;;;20.88;18.88;;;;;;;;;;511620;28;1646;-86
2022/04/25 01:20:42;;;;;;;20.13;18.33;;;;;;;;;;512742;28;1865;-86
2022/04/25 01:20:58;;;;;;;19.90;18.10;;;;;;;;;;513191;28;1441;-86
2022/04/25 01:21:17;;;;;;;20.58;18.67;;;;;;;;;;513139;28;1457;-86
2022/04/25 01:21:38;;;;;;;21.60;19.50;;;;;;;;;;516008;28;1814;-86
2022/04/25 01:21:59;;;;;;;20.98;19.08;;;;;;;;;;518817;28;1451;-86
2022/04/25 01:22:17;;;;;;;21.15;19.25;;;;;;;;;;519257;28;1525;-86
2022/04/25 01:22:40;;;;;;;20.85;19.00;;;;;;;;;;518983;28;1502;-86
2022/04/25 01:27:17;;;;;;;21.48;19.33;;;;;;;;;;517984;28;1503;-86
2022/04/25 01:27:33;;;;;;;21.42;19.33;;;;;;;;;;516446;28;1549;-87
2022/04/25 01:27:49;;;;;;;20.95;18.80;;;;;;;;;;514542;28;1497;-87
2022/04/25 01:28:04;;;;;;;20.70;18.60;;;;;;;;;;514597;28;1461;-87
2022/04/25 01:28:19;;;;;;;21.20;19.00;;;;;;;;;;514398;28;1569;-87
2022/04/25 01:28:35;;;;;;;21.70;19.38;;;;;;;;;;515576;28;1594;-87
2022/04/25 01:28:52;;;;;;;21.63;19.43;;;;;;;;;;514574;28;1990;-88
2022/04/25 01:29:08;;;;;;;21.63;19.45;;;;;;;;;;514436;28;1483;-88
2022/04/25 01:29:24;;;;;;;21.90;19.73;;;;;;;;;;515493;28;1452;-88
2022/04/25 01:29:40;;;;;;;21.50;19.50;;;;;;;;;;515093;28;1775;-88
2022/04/25 01:29:56;;;;;;;21.30;19.30;;;;;;;;;;515850;28;1447;-89
2022/04/25 01:30:11;;;;;;;21.42;19.30;;;;;;;;;;514434;28;1769;-89
2022/04/25 01:30:30;;;;;;;20.93;18.87;;;;;;;;;;515939;28;1440;-89
2022/04/25 01:30:46;;;;;;;21.88;19.73;;;;;;;;;;514542;28;1435;-88
2022/04/25 01:31:01;;;;;;;22.37;20.17;;;;;;;;;;514542;28;1459;-88
2022/04/25 01:31:17;;;;;;;21.87;19.77;;;;;;;;;;514251;28;1559;-88
2022/04/25 01:31:32;;;;;;;21.20;19.17;;;;;;;;;;514348;28;1424;-88
2022/04/25 01:31:48;;;;;;;21.50;19.30;;;;;;;;;;514487;28;1511;-88
2022/04/25 01:32:04;;;;;;;22.00;19.80;;;;;;;;;;514691;28;1534;-88
2022/04/25 01:32:22;;;;;;;21.85;19.65;;;;;;;;;;514011;28;1535;-89
2022/04/25 01:32:38;;;;;;;21.75;19.67;;;;;;;;;;514167;28;1464;-88
2022/04/25 01:32:53;;;;;;;22.25;20.15;;;;;;;;;;514767;28;1381;-88
2022/04/25 01:33:10;;;;;;;22.30;20.13;;;;;;;;;;515260;28;1611;-89
2022/04/25 01:33:25;;;;;;;22.35;20.25;;;;;;;;;;515079;28;1426;-88
2022/04/25 01:33:40;;;;;;;22.83;20.63;;;;;;;;;;515254;28;1602;-88
2022/04/25 01:33:56;;;;;;;22.88;20.63;;;;;;;;;;516694;28;1529;-88
2022/04/25 01:34:12;;;;;;;22.75;20.55;;;;;;;;;;516777;28;1494;-88
2022/04/25 01:34:27;;;;;;;22.37;20.07;;;;;;;;;;516635;28;1577;-88
2022/04/25 01:34:43;;;;;;;22.57;20.27;;;;;;;;;;516196;28;1620;-89
2022/04/25 01:34:58;;;;;;;22.65;20.45;;;;;;;;;;516278;28;1534;-88
2022/04/25 01:35:13;;;;;;;22.57;20.30;;;;;;;;;;514701;28;1776;-88
2022/04/25 01:35:29;;;;;;;23.23;20.93;;;;;;;;;;516358;28;1515;-88
2022/04/25 01:35:45;;;;;;;23.63;21.23;;;;;;;;;;514484;28;1677;-88
2022/04/25 01:36:02;;;;;;;23.50;21.10;;;;;;;;;;514354;28;1548;-87
2022/04/25 01:36:22;;;;;;;23.83;21.50;;;;;;;;;;516593;28;1408;-88
2022/04/25 01:36:38;;;;;;;24.40;22.08;;;;;;;;;;514666;28;1678;-88
2022/04/25 01:36:53;;;;;;;24.38;22.08;;;;;;;;;;514976;28;1561;-88
2022/04/25 01:37:13;;;;;;;24.33;22.03;;;;;;;;;;514090;28;1494;-87
2022/04/25 01:37:29;;;;;;;24.05;21.75;;;;;;;;;;514427;28;1528;-88
2022/04/25 01:37:44;;;;;;;24.33;21.98;;;;;;;;;;514722;28;1610;-88
2022/04/25 01:38:00;;;;;;;24.45;22.13;;;;;;;;;;514959;28;1551;-88
2022/04/25 01:38:15;;;;;;;24.20;21.80;;;;;;;;;;514815;28;1657;-88
2022/04/25 01:38:30;;;;;;;24.20;21.80;;;;;;;;;;513887;28;1484;-88
2022/04/25 01:38:46;;;;;;;24.43;22.13;;;;;;;;;;513121;28;1548;-88
2022/04/25 01:39:01;;;;;;;24.93;22.47;;;;;;;;;;510779;28;1632;-88
2022/04/25 01:39:16;;;;;;;24.95;22.45;;;;;;;;;;511398;28;1457;-89
2022/04/25 01:39:43;;;;;;;24.40;22.00;;;;;;;;;;511436;28;1572;-88
2022/04/25 01:39:58;;;;;;;24.50;22.13;;;;;;;;;;512030;28;1704;-88